Time;durP1;ratioP1;P1;durP2;ratioP2;P2;SDS_P1;SDS_P2;PMS_P1;PMS_P2;Temp;Humidity;BMP_temperature;BMP_pressure;BME280_temperature;BME280_humidity;BME280_pressure;Samples;Min_cycle;Max_cycle;Signal;HPM_P1;HPM_P2
2022/03/09 00:00:05;;;;;;;4.72;3.03;;;;;;;;;;5068535;28;20036;-76
2022/03/09 00:02:31;;;;;;;3.65;2.60;;;;;;;;;;5068464;28;20048;-76
2022/03/09 00:04:57;;;;;;;3.72;2.47;;;;;;;;;;5051797;28;20059;-76
2022/03/09 00:07:23;;;;;;;6.75;3.70;;;;;;;;;;5051661;28;20041;-76
2022/03/09 00:09:49;;;;;;;4.38;2.80;;;;;;;;;;5051798;28;20178;-76
2022/03/09 00:12:14;;;;;;;5.40;3.30;;;;;;;;;;5051573;28;20489;-76
2022/03/09 00:14:40;;;;;;;6.57;3.47;;;;;;;;;;5068688;28;20420;-76
2022/03/09 00:17:06;;;;;;;6.05;3.00;;;;;;;;;;5070128;28;20400;-76
2022/03/09 00:19:32;;;;;;;4.00;3.05;;;;;;;;;;5053181;28;20044;-76
2022/03/09 00:21:58;;;;;;;4.85;3.20;;;;;;;;;;5053104;28;20444;-76
2022/03/09 00:24:24;;;;;;;14.57;3.38;;;;;;;;;;5069523;28;20125;-76
2022/03/09 00:26:50;;;;;;;5.03;3.33;;;;;;;;;;5054438;28;20040;-76
2022/03/09 00:29:17;;;;;;;7.03;3.35;;;;;;;;;;5056884;28;20052;-76
2022/03/09 00:31:43;;;;;;;6.30;3.40;;;;;;;;;;5073383;28;20489;-76
2022/03/09 00:34:09;;;;;;;4.43;3.17;;;;;;;;;;5056507;28;20032;-76
2022/03/09 00:36:35;;;;;;;6.80;3.30;;;;;;;;;;5073330;28;20048;-76
2022/03/09 00:39:01;;;;;;;7.20;3.63;;;;;;;;;;5073111;28;20045;-76
2022/03/09 00:41:27;;;;;;;5.95;3.50;;;;;;;;;;5056221;28;20041;-76
2022/03/09 00:43:53;;;;;;;7.05;3.35;;;;;;;;;;5072978;28;20059;-76
2022/03/09 00:46:19;;;;;;;6.72;3.78;;;;;;;;;;5073013;28;20123;-76
2022/03/09 00:48:45;;;;;;;5.10;3.38;;;;;;;;;;5072995;28;20040;-76
2022/03/09 00:51:11;;;;;;;5.45;2.97;;;;;;;;;;5056237;28;20040;-76
2022/03/09 00:53:37;;;;;;;7.50;3.22;;;;;;;;;;5056223;28;20385;-76
2022/03/09 00:56:03;;;;;;;5.65;3.42;;;;;;;;;;5072866;28;20047;-76
2022/03/09 00:58:29;;;;;;;6.40;3.40;;;;;;;;;;5056460;28;20131;-76
2022/03/09 01:00:55;;;;;;;8.45;3.67;;;;;;;;;;5072984;28;20174;-76
2022/03/09 01:03:22;;;;;;;6.10;3.40;;;;;;;;;;5072688;28;20044;-76
2022/03/09 01:05:47;;;;;;;4.65;3.05;;;;;;;;;;5072694;28;20032;-76
2022/03/09 01:08:13;;;;;;;9.38;4.25;;;;;;;;;;5072741;28;20042;-76
2022/03/09 01:10:39;;;;;;;6.35;4.00;;;;;;;;;;5056002;28;20045;-75
2022/03/09 01:13:05;;;;;;;7.28;3.95;;;;;;;;;;5055413;28;20049;-76
2022/03/09 01:15:32;;;;;;;8.75;3.65;;;;;;;;;;5072479;28;20503;-76
2022/03/09 01:17:58;;;;;;;7.97;4.20;;;;;;;;;;5055691;28;20043;-76
2022/03/09 01:20:25;;;;;;;7.15;4.40;;;;;;;;;;5072444;28;20128;-76
2022/03/09 01:22:52;;;;;;;10.85;4.90;;;;;;;;;;5072329;28;20080;-76
2022/03/09 01:25:19;;;;;;;4.80;3.25;;;;;;;;;;5055834;28;20480;-75
2022/03/09 01:27:45;;;;;;;7.05;4.18;;;;;;;;;;5055497;28;20101;-75
2022/03/09 01:30:11;;;;;;;6.93;3.65;;;;;;;;;;5072348;28;20439;-75
2022/03/09 01:32:37;;;;;;;8.98;4.70;;;;;;;;;;5055674;28;20091;-75
2022/03/09 01:35:03;;;;;;;7.03;3.78;;;;;;;;;;5072040;28;20072;-76
2022/03/09 01:37:29;;;;;;;9.02;3.63;;;;;;;;;;5055328;28;20090;-76
2022/03/09 01:39:56;;;;;;;10.90;3.97;;;;;;;;;;5054673;28;20048;-75
2022/03/09 01:42:22;;;;;;;7.07;4.15;;;;;;;;;;5072058;28;20083;-75
2022/03/09 01:44:48;;;;;;;8.93;3.65;;;;;;;;;;5072232;28;20036;-75
2022/03/09 01:47:14;;;;;;;6.25;3.83;;;;;;;;;;5055279;28;20170;-75
2022/03/09 01:49:40;;;;;;;5.90;3.72;;;;;;;;;;5071649;28;20040;-75
2022/03/09 01:52:06;;;;;;;7.68;3.92;;;;;;;;;;5071661;28;20048;-75
2022/03/09 01:54:32;;;;;;;9.32;4.15;;;;;;;;;;5055305;28;20055;-75
2022/03/09 01:56:59;;;;;;;8.45;4.35;;;;;;;;;;5071679;28;20036;-75
2022/03/09 01:59:25;;;;;;;7.82;4.55;;;;;;;;;;5054892;28;20048;-75
2022/03/09 02:01:51;;;;;;;10.20;4.40;;;;;;;;;;5055084;28;20051;-75
2022/03/09 02:04:18;;;;;;;6.57;4.38;;;;;;;;;;5071539;28;20041;-75
2022/03/09 02:06:45;;;;;;;7.82;4.32;;;;;;;;;;5071678;28;20098;-75
2022/03/09 02:11:57;;;;;;;10.20;4.35;;;;;;;;;;5071218;28;20055;-75
2022/03/09 02:14:31;;;;;;;6.93;4.20;;;;;;;;;;5071337;28;20051;-75
2022/03/09 02:16:58;;;;;;;7.53;3.83;;;;;;;;;;5054910;28;20048;-75
2022/03/09 02:19:24;;;;;;;7.47;4.32;;;;;;;;;;5054386;28;20040;-74
2022/03/09 02:21:52;;;;;;;6.15;4.30;;;;;;;;;;5071115;28;20100;-75
2022/03/09 02:24:18;;;;;;;10.13;4.82;;;;;;;;;;5054479;28;20392;-75
2022/03/09 02:26:44;;;;;;;9.48;5.10;;;;;;;;;;5054548;28;20251;-75
2022/03/09 02:29:10;;;;;;;7.82;4.75;;;;;;;;;;5054694;28;20040;-76
2022/03/09 02:31:36;;;;;;;9.35;5.03;;;;;;;;;;5054221;28;20258;-74
2022/03/09 02:34:02;;;;;;;7.65;4.53;;;;;;;;;;5071097;28;20040;-75
2022/03/09 02:36:28;;;;;;;8.48;4.78;;;;;;;;;;5070942;28;20499;-75
2022/03/09 02:38:54;;;;;;;9.30;4.60;;;;;;;;;;5054116;28;20044;-75
2022/03/09 02:41:20;;;;;;;6.80;4.07;;;;;;;;;;5071109;28;20037;-76
2022/03/09 02:43:46;;;;;;;8.05;4.20;;;;;;;;;;5070932;28;20033;-76
2022/03/09 02:46:12;;;;;;;10.23;4.85;;;;;;;;;;5054386;28;20048;-76
2022/03/09 02:48:38;;;;;;;9.93;4.93;;;;;;;;;;5071192;28;20072;-75
2022/03/09 02:51:04;;;;;;;10.40;4.88;;;;;;;;;;5053888;28;20047;-75
2022/03/09 02:53:30;;;;;;;7.50;4.47;;;;;;;;;;5054009;28;20079;-76
2022/03/09 02:55:56;;;;;;;7.15;4.47;;;;;;;;;;5053931;28;20051;-75
2022/03/09 02:58:21;;;;;;;7.20;4.55;;;;;;;;;;5066607;28;20528;-76
2022/03/09 03:00:47;;;;;;;7.78;4.95;;;;;;;;;;5032323;28;20076;-76
2022/03/09 03:03:13;;;;;;;9.68;4.60;;;;;;;;;;5032928;28;20037;-76
2022/03/09 03:05:39;;;;;;;10.23;4.47;;;;;;;;;;5049964;28;20732;-76
2022/03/09 03:08:05;;;;;;;7.57;4.53;;;;;;;;;;5033396;28;20481;-76
2022/03/09 03:10:31;;;;;;;12.32;5.50;;;;;;;;;;5050260;28;20041;-76
2022/03/09 03:12:57;;;;;;;10.23;4.70;;;;;;;;;;5050191;28;20487;-76
2022/03/09 03:15:23;;;;;;;11.73;5.15;;;;;;;;;;5050416;28;20140;-76
2022/03/09 03:17:49;;;;;;;10.77;4.90;;;;;;;;;;5050302;28;20037;-75
2022/03/09 03:20:15;;;;;;;8.70;4.65;;;;;;;;;;5050638;28;20048;-76
2022/03/09 03:22:41;;;;;;;9.07;5.05;;;;;;;;;;5034010;28;20075;-75
2022/03/09 03:25:07;;;;;;;9.85;5.07;;;;;;;;;;5033602;28;20037;-75
2022/03/09 03:27:33;;;;;;;10.43;5.82;;;;;;;;;;5033675;28;20047;-75
2022/03/09 03:29:59;;;;;;;11.43;4.47;;;;;;;;;;5033522;28;20033;-75
2022/03/09 03:32:25;;;;;;;9.65;4.97;;;;;;;;;;5050125;28;20044;-75
2022/03/09 03:34:51;;;;;;;12.50;5.10;;;;;;;;;;5033570;28;20397;-75
2022/03/09 03:37:17;;;;;;;8.40;4.68;;;;;;;;;;5050173;28;20136;-76
2022/03/09 03:39:43;;;;;;;10.35;4.65;;;;;;;;;;5050013;28;20049;-75
2022/03/09 03:42:10;;;;;;;10.68;5.63;;;;;;;;;;5033411;28;20037;-76
2022/03/09 03:44:36;;;;;;;7.63;4.60;;;;;;;;;;5033186;28;20037;-76
2022/03/09 03:47:02;;;;;;;11.90;5.05;;;;;;;;;;5050209;28;20560;-76
2022/03/09 03:49:28;;;;;;;10.75;4.80;;;;;;;;;;5049892;28;20061;-76
2022/03/09 03:51:54;;;;;;;10.75;5.50;;;;;;;;;;5049884;28;20045;-76
2022/03/09 03:54:20;;;;;;;8.32;5.10;;;;;;;;;;5050235;28;20141;-75
2022/03/09 03:56:46;;;;;;;11.95;5.32;;;;;;;;;;5033605;28;20076;-76
2022/03/09 03:59:13;;;;;;;10.38;5.18;;;;;;;;;;5066398;28;20059;-75
2022/03/09 04:01:39;;;;;;;10.90;5.63;;;;;;;;;;5054529;28;20485;-75
2022/03/09 04:04:05;;;;;;;10.73;5.45;;;;;;;;;;5073735;28;20036;-76
2022/03/09 04:06:31;;;;;;;11.25;5.20;;;;;;;;;;5073975;28;20042;-75
2022/03/09 04:08:57;;;;;;;9.88;5.47;;;;;;;;;;5073721;28;20102;-76
2022/03/09 04:11:22;;;;;;;13.25;6.03;;;;;;;;;;5073863;28;20052;-75
2022/03/09 04:13:48;;;;;;;9.63;4.47;;;;;;;;;;5056999;28;20044;-76
2022/03/09 04:16:14;;;;;;;9.80;5.07;;;;;;;;;;5073756;28;20048;-76
2022/03/09 04:18:40;;;;;;;15.00;5.30;;;;;;;;;;5056910;28;20076;-76
2022/03/09 04:21:06;;;;;;;7.93;4.50;;;;;;;;;;5073561;28;20044;-76
2022/03/09 04:23:33;;;;;;;13.65;5.50;;;;;;;;;;5073465;28;20036;-76
2022/03/09 04:25:59;;;;;;;11.40;5.22;;;;;;;;;;5057002;28;20086;-76
2022/03/09 04:28:25;;;;;;;10.48;5.82;;;;;;;;;;5056621;28;20045;-76
2022/03/09 04:30:51;;;;;;;10.00;4.68;;;;;;;;;;5057032;28;20408;-77
2022/03/09 04:33:16;;;;;;;12.88;4.90;;;;;;;;;;5056569;28;20119;-76
2022/03/09 04:35:42;;;;;;;10.60;5.15;;;;;;;;;;5057620;28;20087;-76
2022/03/09 04:38:08;;;;;;;9.07;4.97;;;;;;;;;;5058334;28;20104;-76
2022/03/09 04:40:34;;;;;;;13.65;6.07;;;;;;;;;;5077688;28;20040;-76
2022/03/09 04:43:00;;;;;;;8.20;5.25;;;;;;;;;;5077523;28;20124;-76
2022/03/09 04:45:26;;;;;;;10.75;5.35;;;;;;;;;;5078658;28;20041;-77
2022/03/09 04:47:52;;;;;;;11.13;5.90;;;;;;;;;;5077410;28;20405;-76
2022/03/09 04:50:18;;;;;;;13.07;5.25;;;;;;;;;;5062260;28;20045;-76
2022/03/09 04:52:44;;;;;;;11.35;6.07;;;;;;;;;;5060461;28;20037;-76
2022/03/09 04:55:10;;;;;;;14.60;6.63;;;;;;;;;;5076424;28;20043;-76
2022/03/09 04:57:37;;;;;;;13.07;7.45;;;;;;;;;;5076857;28;20068;-77
2022/03/09 05:00:04;;;;;;;25.77;9.93;;;;;;;;;;5076936;28;20101;-76
2022/03/09 05:02:30;;;;;;;14.80;6.18;;;;;;;;;;5076211;28;20101;-76
2022/03/09 05:04:56;;;;;;;13.32;5.00;;;;;;;;;;5077819;28;20053;-77
2022/03/09 05:07:22;;;;;;;12.50;6.20;;;;;;;;;;5077654;28;20396;-76
2022/03/09 05:09:48;;;;;;;13.68;5.47;;;;;;;;;;5059790;28;20443;-77
2022/03/09 05:12:14;;;;;;;11.63;5.57;;;;;;;;;;5060282;28;20067;-76
2022/03/09 05:14:40;;;;;;;13.48;5.18;;;;;;;;;;5076615;28;20094;-77
2022/03/09 05:17:06;;;;;;;11.07;5.25;;;;;;;;;;5079379;28;20048;-77
2022/03/09 05:19:32;;;;;;;12.90;5.72;;;;;;;;;;5064866;28;20095;-77
2022/03/09 05:21:58;;;;;;;14.40;6.15;;;;;;;;;;5082379;28;20093;-76
2022/03/09 05:24:24;;;;;;;15.75;6.93;;;;;;;;;;5066011;28;20036;-76
2022/03/09 05:26:50;;;;;;;19.58;7.53;;;;;;;;;;5065132;28;20062;-77
2022/03/09 05:29:16;;;;;;;14.30;7.03;;;;;;;;;;5065864;28;20090;-77
2022/03/09 05:31:44;;;;;;;17.02;7.07;;;;;;;;;;5081685;28;20041;-76
2022/03/09 05:34:10;;;;;;;13.27;6.78;;;;;;;;;;5080488;28;20086;-76
2022/03/09 05:36:36;;;;;;;15.20;6.78;;;;;;;;;;5079042;28;20397;-76
2022/03/09 05:39:03;;;;;;;10.40;5.78;;;;;;;;;;5079801;28;20043;-76
2022/03/09 05:41:29;;;;;;;13.02;5.72;;;;;;;;;;5062477;28;20063;-76
2022/03/09 05:43:55;;;;;;;13.63;5.78;;;;;;;;;;5061506;28;20037;-75
2022/03/09 05:46:21;;;;;;;11.85;5.88;;;;;;;;;;5076758;28;20044;-75
2022/03/09 05:48:47;;;;;;;9.85;5.88;;;;;;;;;;5058499;28;20202;-75
2022/03/09 05:51:13;;;;;;;13.68;7.05;;;;;;;;;;5073672;28;20094;-75
2022/03/09 05:53:39;;;;;;;11.30;6.00;;;;;;;;;;5058838;28;20404;-75
2022/03/09 05:56:05;;;;;;;11.27;6.45;;;;;;;;;;5058520;28;20040;-76
2022/03/09 05:58:31;;;;;;;14.57;7.38;;;;;;;;;;5077089;28;20048;-75
2022/03/09 06:00:57;;;;;;;12.48;6.20;;;;;;;;;;5058991;28;20036;-76
2022/03/09 06:03:23;;;;;;;11.77;6.35;;;;;;;;;;5059511;28;20043;-76
2022/03/09 06:05:49;;;;;;;14.82;6.20;;;;;;;;;;5059277;28;20431;-75
2022/03/09 06:08:15;;;;;;;12.93;5.85;;;;;;;;;;5057095;28;20048;-76
2022/03/09 06:10:41;;;;;;;18.40;6.78;;;;;;;;;;5074104;28;20041;-75
2022/03/09 06:13:07;;;;;;;14.90;6.35;;;;;;;;;;5057954;28;20060;-74
2022/03/09 06:15:33;;;;;;;12.25;5.85;;;;;;;;;;5074048;28;20123;-76
2022/03/09 06:17:59;;;;;;;11.82;5.82;;;;;;;;;;5056367;28;20048;-76
2022/03/09 06:20:25;;;;;;;13.98;5.68;;;;;;;;;;5055411;28;20048;-75
2022/03/09 06:22:52;;;;;;;13.75;5.43;;;;;;;;;;5054629;28;20036;-76
2022/03/09 06:25:18;;;;;;;12.70;5.97;;;;;;;;;;5071046;28;20500;-76
2022/03/09 06:27:45;;;;;;;14.02;6.90;;;;;;;;;;5072706;28;20043;-75
2022/03/09 06:30:12;;;;;;;11.13;6.70;;;;;;;;;;5072697;28;20094;-76
2022/03/09 06:32:38;;;;;;;11.52;6.95;;;;;;;;;;5055337;28;20079;-76
2022/03/09 06:35:04;;;;;;;16.17;7.22;;;;;;;;;;5071573;28;20083;-75
2022/03/09 06:37:31;;;;;;;12.77;6.72;;;;;;;;;;5073842;28;20040;-77
2022/03/09 06:39:57;;;;;;;13.80;6.35;;;;;;;;;;5072309;28;20045;-74
2022/03/09 06:42:24;;;;;;;12.35;6.85;;;;;;;;;;5055228;28;20036;-75
2022/03/09 06:44:50;;;;;;;14.00;6.93;;;;;;;;;;5072041;28;20072;-75
2022/03/09 06:47:16;;;;;;;11.52;6.22;;;;;;;;;;5071866;28;20699;-75
2022/03/09 06:49:42;;;;;;;13.80;6.43;;;;;;;;;;5071017;28;20065;-75
2022/03/09 06:52:08;;;;;;;14.27;7.53;;;;;;;;;;5071315;28;20056;-76
2022/03/09 06:54:34;;;;;;;13.63;6.97;;;;;;;;;;5053459;28;20032;-76
2022/03/09 06:57:00;;;;;;;13.90;6.65;;;;;;;;;;5052800;28;20082;-76
2022/03/09 06:59:26;;;;;;;10.15;6.57;;;;;;;;;;5052615;28;20048;-75
2022/03/09 07:01:52;;;;;;;14.45;7.03;;;;;;;;;;5052472;28;20035;-76
2022/03/09 07:04:18;;;;;;;14.70;6.82;;;;;;;;;;5069560;28;20217;-77
2022/03/09 07:06:44;;;;;;;13.18;6.63;;;;;;;;;;5052913;28;20040;-76
2022/03/09 07:09:10;;;;;;;13.32;7.30;;;;;;;;;;5052468;28;20125;-76
2022/03/09 07:11:36;;;;;;;17.83;7.22;;;;;;;;;;5069946;28;20049;-75
2022/03/09 07:14:02;;;;;;;16.33;7.80;;;;;;;;;;5070586;28;20036;-76
2022/03/09 07:16:28;;;;;;;18.58;9.18;;;;;;;;;;5053958;28;20044;-76
2022/03/09 07:18:54;;;;;;;15.52;6.53;;;;;;;;;;5053278;28;20688;-74
2022/03/09 07:21:20;;;;;;;17.35;7.43;;;;;;;;;;5053492;28;20063;-75
2022/03/09 07:23:46;;;;;;;21.13;8.02;;;;;;;;;;5069802;28;20032;-75
2022/03/09 07:26:12;;;;;;;15.35;7.18;;;;;;;;;;5052437;28;20090;-75
2022/03/09 07:28:38;;;;;;;16.17;7.20;;;;;;;;;;5053308;28;20048;-73
2022/03/09 07:31:04;;;;;;;20.92;7.78;;;;;;;;;;5070126;28;20044;-74
2022/03/09 07:33:30;;;;;;;12.60;7.13;;;;;;;;;;5053416;28;20067;-74
2022/03/09 07:35:56;;;;;;;11.57;6.55;;;;;;;;;;5052911;28;20051;-74
2022/03/09 07:38:22;;;;;;;14.07;7.07;;;;;;;;;;5070012;28;20397;-75
2022/03/09 07:40:48;;;;;;;12.40;6.78;;;;;;;;;;5053491;28;20481;-73
2022/03/09 07:43:14;;;;;;;11.55;5.88;;;;;;;;;;5053373;28;20093;-75
2022/03/09 07:45:40;;;;;;;11.45;6.50;;;;;;;;;;5054023;28;20043;-75
2022/03/09 07:48:06;;;;;;;13.82;7.55;;;;;;;;;;5069960;28;20041;-75
2022/03/09 07:50:32;;;;;;;14.30;6.38;;;;;;;;;;5053277;28;20046;-75
2022/03/09 07:52:59;;;;;;;12.70;7.45;;;;;;;;;;5070274;28;20506;-76
2022/03/09 07:55:25;;;;;;;11.75;6.57;;;;;;;;;;5053191;28;20447;-75
2022/03/09 07:57:51;;;;;;;12.38;6.40;;;;;;;;;;5069902;28;20051;-76
2022/03/09 08:00:17;;;;;;;10.98;6.45;;;;;;;;;;5069682;28;20560;-75
2022/03/09 08:02:43;;;;;;;13.60;7.32;;;;;;;;;;5069974;28;20043;-75
2022/03/09 08:05:09;;;;;;;13.43;7.25;;;;;;;;;;5053595;28;20043;-73
2022/03/09 08:07:35;;;;;;;10.43;6.28;;;;;;;;;;5070698;28;20123;-74
2022/03/09 08:10:01;;;;;;;10.98;6.47;;;;;;;;;;5070401;28;20079;-75
2022/03/09 08:12:27;;;;;;;15.55;7.13;;;;;;;;;;5070410;28;20048;-74
2022/03/09 08:14:54;;;;;;;11.50;6.55;;;;;;;;;;5053986;28;20055;-75
2022/03/09 08:17:20;;;;;;;11.60;6.90;;;;;;;;;;5053998;28;20132;-76
2022/03/09 08:19:46;;;;;;;11.02;6.38;;;;;;;;;;5053840;28;20139;-74
2022/03/09 08:22:12;;;;;;;10.52;6.35;;;;;;;;;;5070415;28;20037;-76
2022/03/09 08:24:38;;;;;;;11.77;6.57;;;;;;;;;;5053827;28;20089;-77
2022/03/09 08:27:04;;;;;;;9.55;5.97;;;;;;;;;;5053046;28;20111;-75
2022/03/09 08:29:30;;;;;;;12.85;6.32;;;;;;;;;;5069534;28;20037;-76
2022/03/09 08:31:56;;;;;;;12.50;7.25;;;;;;;;;;5052784;28;20045;-75
2022/03/09 08:34:22;;;;;;;10.30;6.38;;;;;;;;;;5053066;28;20552;-74
2022/03/09 08:36:48;;;;;;;9.57;6.40;;;;;;;;;;5069654;28;20119;-75
2022/03/09 08:39:15;;;;;;;11.50;6.75;;;;;;;;;;5052852;28;20048;-73
2022/03/09 08:41:41;;;;;;;11.73;6.38;;;;;;;;;;5069455;28;20041;-74
2022/03/09 08:44:07;;;;;;;11.30;6.15;;;;;;;;;;5069595;28;20119;-76
2022/03/09 08:46:33;;;;;;;10.77;6.45;;;;;;;;;;5069438;28;20040;-76
2022/03/09 08:48:59;;;;;;;9.45;6.30;;;;;;;;;;5056028;28;20044;-76
2022/03/09 08:51:25;;;;;;;10.98;6.30;;;;;;;;;;5056895;28;20044;-75
2022/03/09 08:53:51;;;;;;;10.52;6.35;;;;;;;;;;5073172;28;20047;-76
2022/03/09 08:56:17;;;;;;;18.05;7.22;;;;;;;;;;5059358;28;20102;-74
2022/03/09 08:58:43;;;;;;;9.95;6.75;;;;;;;;;;5072850;28;20052;-76
2022/03/09 09:01:09;;;;;;;11.27;6.50;;;;;;;;;;5073602;28;20052;-75
2022/03/09 09:03:35;;;;;;;9.57;6.50;;;;;;;;;;5073280;28;20076;-75
2022/03/09 09:06:01;;;;;;;11.05;6.90;;;;;;;;;;5073001;28;20074;-76
2022/03/09 09:08:27;;;;;;;8.45;5.80;;;;;;;;;;5072834;28;20111;-75
2022/03/09 09:10:53;;;;;;;11.75;6.32;;;;;;;;;;5073078;28;20039;-75
2022/03/09 09:13:20;;;;;;;8.65;5.90;;;;;;;;;;5055829;28;20523;-76
2022/03/09 09:15:47;;;;;;;10.13;5.90;;;;;;;;;;5072612;28;20036;-74
2022/03/09 09:18:13;;;;;;;10.98;6.05;;;;;;;;;;5072759;28;20477;-76
2022/03/09 09:20:39;;;;;;;16.20;6.90;;;;;;;;;;5056179;28;20155;-75
2022/03/09 09:23:06;;;;;;;11.32;6.05;;;;;;;;;;5072992;28;20404;-77
2022/03/09 09:25:32;;;;;;;13.73;6.97;;;;;;;;;;5056270;28;20384;-76
2022/03/09 09:27:59;;;;;;;10.88;5.78;;;;;;;;;;5055601;28;20063;-76
2022/03/09 09:30:26;;;;;;;10.63;5.95;;;;;;;;;;5056743;28;20041;-75
2022/03/09 09:32:52;;;;;;;11.40;5.95;;;;;;;;;;5055727;28;20040;-73
2022/03/09 09:35:19;;;;;;;10.43;5.80;;;;;;;;;;5072486;28;20071;-75
2022/03/09 09:37:45;;;;;;;8.60;5.32;;;;;;;;;;5055917;28;20044;-75
2022/03/09 09:40:13;;;;;;;8.48;5.63;;;;;;;;;;5055643;28;20481;-76
2022/03/09 09:42:39;;;;;;;12.55;5.78;;;;;;;;;;5072532;28;20036;-74
2022/03/09 09:45:07;;;;;;;12.13;5.82;;;;;;;;;;5055543;28;20045;-75
2022/03/09 09:47:33;;;;;;;9.05;5.75;;;;;;;;;;5055513;28;20476;-74
2022/03/09 09:50:02;;;;;;;10.10;5.97;;;;;;;;;;5055366;28;20047;-76
2022/03/09 09:52:29;;;;;;;11.73;6.43;;;;;;;;;;5072370;28;20045;-77
2022/03/09 09:54:56;;;;;;;11.25;5.75;;;;;;;;;;5055767;28;20047;-74
2022/03/09 09:57:23;;;;;;;9.20;5.80;;;;;;;;;;5055431;28;20049;-74
2022/03/09 09:59:50;;;;;;;9.75;6.00;;;;;;;;;;5054637;28;20047;-74
2022/03/09 10:02:16;;;;;;;10.77;6.25;;;;;;;;;;5055476;28;20041;-75
2022/03/09 10:04:42;;;;;;;14.75;6.65;;;;;;;;;;5054861;28;20041;-74
2022/03/09 10:07:09;;;;;;;9.00;6.28;;;;;;;;;;5071953;28;20556;-75
2022/03/09 10:09:35;;;;;;;11.25;6.72;;;;;;;;;;5072381;28;20040;-76
2022/03/09 10:12:03;;;;;;;10.65;5.55;;;;;;;;;;5071783;28;20092;-77
2022/03/09 10:14:39;;;;;;;12.68;6.00;;;;;;;;;;5071844;28;20510;-76
2022/03/09 10:17:06;;;;;;;11.32;5.80;;;;;;;;;;5071491;28;20044;-76
2022/03/09 10:19:37;;;;;;;9.52;5.55;;;;;;;;;;5053642;28;20048;-76
2022/03/09 10:22:22;;;;;;;10.57;6.00;;;;;;;;;;5054810;28;20554;-74
2022/03/09 10:24:48;;;;;;;10.35;5.75;;;;;;;;;;5054773;28;20048;-75
2022/03/09 10:27:32;;;;;;;9.90;5.90;;;;;;;;;;5054880;28;20040;-74
2022/03/09 10:29:59;;;;;;;9.48;6.05;;;;;;;;;;5071496;28;20051;-75
2022/03/09 10:32:45;;;;;;;10.55;5.85;;;;;;;;;;5054583;28;20080;-75
2022/03/09 10:35:15;;;;;;;10.77;5.18;;;;;;;;;;5054590;28;20044;-75
2022/03/09 10:37:41;;;;;;;11.32;5.65;;;;;;;;;;5071432;28;20052;-75
2022/03/09 10:40:16;;;;;;;8.52;5.68;;;;;;;;;;5071028;28;20044;-77
2022/03/09 10:42:41;;;;;;;10.05;5.60;;;;;;;;;;5070976;28;20335;-76
2022/03/09 10:45:08;;;;;;;12.63;5.68;;;;;;;;;;5054474;28;20045;-75
2022/03/09 10:47:34;;;;;;;9.52;5.32;;;;;;;;;;5071074;28;20377;-74
2022/03/09 10:50:15;;;;;;;8.98;5.80;;;;;;;;;;5054577;28;20047;-75
2022/03/09 10:52:42;;;;;;;12.57;6.10;;;;;;;;;;5070984;28;20143;-75
2022/03/09 10:55:27;;;;;;;12.38;6.07;;;;;;;;;;5071193;28;20087;-74
2022/03/09 10:58:06;;;;;;;11.18;6.10;;;;;;;;;;5070590;28;20047;-75
2022/03/09 11:00:36;;;;;;;8.18;5.03;;;;;;;;;;5054656;28;20697;-75
2022/03/09 11:03:07;;;;;;;10.02;5.28;;;;;;;;;;5054822;28;20044;-74
2022/03/09 11:05:33;;;;;;;11.70;6.25;;;;;;;;;;5054497;28;20047;-76
2022/03/09 11:07:59;;;;;;;14.38;6.35;;;;;;;;;;5070738;28;20089;-76
2022/03/09 11:10:26;;;;;;;11.98;6.13;;;;;;;;;;5070051;28;20044;-74
2022/03/09 11:12:52;;;;;;;10.98;6.70;;;;;;;;;;5053473;28;20072;-77
2022/03/09 11:15:20;;;;;;;11.57;6.28;;;;;;;;;;5053934;28;20048;-76
2022/03/09 11:17:48;;;;;;;11.05;6.25;;;;;;;;;;5054348;28;20044;-77
2022/03/09 11:20:15;;;;;;;10.63;6.95;;;;;;;;;;5054279;28;20040;-78
2022/03/09 11:22:41;;;;;;;13.00;6.38;;;;;;;;;;5053882;28;20378;-76
2022/03/09 11:25:08;;;;;;;8.88;5.80;;;;;;;;;;5053909;28;20063;-77
2022/03/09 11:27:34;;;;;;;12.52;6.20;;;;;;;;;;5070555;28;20036;-76
2022/03/09 11:30:20;;;;;;;11.60;6.40;;;;;;;;;;5054359;28;20480;-77
2022/03/09 11:32:46;;;;;;;12.07;6.32;;;;;;;;;;5053986;28;20053;-76
2022/03/09 11:35:48;;;;;;;10.35;5.93;;;;;;;;;;5070945;28;20128;-77
2022/03/09 11:38:32;;;;;;;14.50;6.72;;;;;;;;;;5049866;28;20056;-76
2022/03/09 11:41:15;;;;;;;12.20;5.82;;;;;;;;;;5053753;28;20109;-76
2022/03/09 11:43:41;;;;;;;10.75;6.40;;;;;;;;;;5054035;28;20072;-76
2022/03/09 11:46:07;;;;;;;9.80;6.03;;;;;;;;;;5054042;28;20040;-76
2022/03/09 11:48:56;;;;;;;13.77;6.65;;;;;;;;;;5053901;28;20076;-76
2022/03/09 11:51:29;;;;;;;13.25;7.00;;;;;;;;;;5070620;28;20037;-75
2022/03/09 11:53:59;;;;;;;8.93;5.72;;;;;;;;;;5053703;28;20193;-78
2022/03/09 11:56:25;;;;;;;10.95;6.05;;;;;;;;;;5054347;28;20501;-77
2022/03/09 11:59:08;;;;;;;11.57;6.55;;;;;;;;;;5054381;28;20496;-77
2022/03/09 12:02:07;;;;;;;12.35;5.80;;;;;;;;;;5070221;28;20485;-78
2022/03/09 12:04:51;;;;;;;10.82;6.35;;;;;;;;;;5045956;28;20053;-78
2022/03/09 12:07:29;;;;;;;10.15;6.15;;;;;;;;;;5053488;28;20045;-75
2022/03/09 12:10:00;;;;;;;13.05;6.22;;;;;;;;;;5054016;28;20067;-76
2022/03/09 12:12:26;;;;;;;7.30;5.63;;;;;;;;;;5053637;28;20061;-75
2022/03/09 12:15:02;;;;;;;9.48;6.43;;;;;;;;;;5053198;28;20049;-77
2022/03/09 12:17:38;;;;;;;11.75;6.07;;;;;;;;;;5053572;28;20508;-78
2022/03/09 12:20:17;;;;;;;10.25;6.35;;;;;;;;;;5053215;28;20041;-78
2022/03/09 12:22:59;;;;;;;10.20;6.40;;;;;;;;;;5071475;28;20037;-78
2022/03/09 12:25:34;;;;;;;8.73;6.07;;;;;;;;;;5073848;28;20044;-76
2022/03/09 12:28:20;;;;;;;10.18;6.25;;;;;;;;;;5056988;28;20044;-76
2022/03/09 12:30:47;;;;;;;8.45;4.93;;;;;;;;;;5057116;28;20044;-77
2022/03/09 12:33:21;;;;;;;11.18;5.65;;;;;;;;;;5073739;28;20416;-74
2022/03/09 12:35:47;;;;;;;12.00;5.97;;;;;;;;;;5057703;28;20102;-74
2022/03/09 12:38:14;;;;;;;10.98;6.30;;;;;;;;;;5057447;28;20057;-78
2022/03/09 12:40:40;;;;;;;9.27;5.25;;;;;;;;;;5073526;28;20040;-77
2022/03/09 12:43:06;;;;;;;10.32;5.97;;;;;;;;;;5073842;28;20050;-77
2022/03/09 12:45:51;;;;;;;12.85;5.75;;;;;;;;;;5056989;28;20149;-77
2022/03/09 12:48:18;;;;;;;12.25;5.53;;;;;;;;;;5057086;28;20044;-77
2022/03/09 12:50:44;;;;;;;11.00;5.55;;;;;;;;;;5057092;28;20477;-78
2022/03/09 12:53:10;;;;;;;10.55;6.00;;;;;;;;;;5073464;28;20396;-78
2022/03/09 12:55:37;;;;;;;11.02;5.28;;;;;;;;;;5074199;28;20032;-75
2022/03/09 12:58:03;;;;;;;9.00;5.90;;;;;;;;;;5073948;28;20210;-80
2022/03/09 13:00:30;;;;;;;9.95;5.82;;;;;;;;;;5056899;28;20120;-77
2022/03/09 13:03:00;;;;;;;9.98;6.28;;;;;;;;;;5072980;28;20512;-76
2022/03/09 13:05:27;;;;;;;9.03;5.40;;;;;;;;;;5056777;28;20044;-77
2022/03/09 13:07:57;;;;;;;9.77;5.30;;;;;;;;;;5057020;28;20040;-76
2022/03/09 13:10:24;;;;;;;9.20;5.38;;;;;;;;;;5056521;28;20059;-76
2022/03/09 13:12:56;;;;;;;9.52;6.03;;;;;;;;;;5056489;28;20067;-76
2022/03/09 13:15:22;;;;;;;9.40;5.85;;;;;;;;;;5056602;28;20051;-77
2022/03/09 13:17:51;;;;;;;10.73;5.75;;;;;;;;;;5073240;28;20051;-77
2022/03/09 13:20:19;;;;;;;10.40;5.45;;;;;;;;;;5056162;28;20093;-78
2022/03/09 13:22:46;;;;;;;10.05;5.43;;;;;;;;;;5056491;28;20036;-76
2022/03/09 13:25:13;;;;;;;12.45;6.15;;;;;;;;;;5073302;28;20044;-78
2022/03/09 13:27:40;;;;;;;7.30;4.93;;;;;;;;;;5056851;28;20040;-76
2022/03/09 13:30:12;;;;;;;10.93;6.00;;;;;;;;;;5074173;28;20098;-76
2022/03/09 13:32:38;;;;;;;8.13;5.60;;;;;;;;;;5057037;28;20040;-77
2022/03/09 13:35:05;;;;;;;7.93;5.63;;;;;;;;;;5056572;28;20052;-76
2022/03/09 13:37:34;;;;;;;10.82;5.97;;;;;;;;;;5056308;28;20048;-77
2022/03/09 13:40:01;;;;;;;10.57;5.55;;;;;;;;;;5072236;28;20389;-78
2022/03/09 13:42:29;;;;;;;10.20;6.82;;;;;;;;;;5072684;28;20040;-78
2022/03/09 13:45:11;;;;;;;11.13;5.53;;;;;;;;;;5056336;28;20090;-78
2022/03/09 13:47:49;;;;;;;11.02;5.45;;;;;;;;;;5056000;28;20037;-76
2022/03/09 13:50:31;;;;;;;10.30;6.00;;;;;;;;;;5055848;28;20045;-78
2022/03/09 13:53:07;;;;;;;9.82;5.82;;;;;;;;;;5072678;28;20087;-77
2022/03/09 13:55:38;;;;;;;9.77;6.03;;;;;;;;;;5056289;28;20481;-76
2022/03/09 13:58:08;;;;;;;11.15;5.70;;;;;;;;;;5055873;28;20135;-77
2022/03/09 14:00:38;;;;;;;10.80;6.30;;;;;;;;;;5056224;28;20048;-76
2022/03/09 14:03:09;;;;;;;11.73;5.95;;;;;;;;;;5072103;28;20060;-78
2022/03/09 14:05:36;;;;;;;10.57;6.43;;;;;;;;;;5072231;28;20485;-78
2022/03/09 14:08:02;;;;;;;12.18;7.47;;;;;;;;;;5073551;28;20043;-77
2022/03/09 14:10:32;;;;;;;10.25;5.95;;;;;;;;;;5055211;28;20036;-77
2022/03/09 14:13:05;;;;;;;9.15;6.03;;;;;;;;;;5055624;28;20216;-78
2022/03/09 14:15:32;;;;;;;8.68;5.68;;;;;;;;;;5072328;28;20056;-77
2022/03/09 14:18:00;;;;;;;13.05;6.55;;;;;;;;;;5072223;28;20090;-77
2022/03/09 14:20:26;;;;;;;9.93;6.53;;;;;;;;;;5055800;28;20044;-77
2022/03/09 14:22:52;;;;;;;11.25;6.30;;;;;;;;;;5072128;28;20040;-75
2022/03/09 14:25:18;;;;;;;8.80;5.47;;;;;;;;;;5072599;28;20040;-77
2022/03/09 14:27:45;;;;;;;11.27;6.18;;;;;;;;;;5072105;28;20400;-78
2022/03/09 14:30:12;;;;;;;12.30;6.70;;;;;;;;;;5072919;28;20043;-79
2022/03/09 14:32:38;;;;;;;15.55;6.10;;;;;;;;;;5054898;28;20400;-78
2022/03/09 14:35:05;;;;;;;10.60;6.22;;;;;;;;;;5071761;28;20133;-77
2022/03/09 14:37:31;;;;;;;10.82;6.28;;;;;;;;;;5056742;28;20127;-78